Flugmeteorologie

METAR


Letzte Änderung: 10 Aug 2022 23:20:00
435
SAHU41 HASM 102330
METAR LHSM 102315Z AUTO 32004KT CAVOK 17/10 Q1021

TAF


Letzte Änderung: 10 Aug 2022 23:25:00
436
FCHU99 LHSM 102300
TAF LHSM 102300Z NIL